Voorburg, Netherlands
Current Conditions -  °F | °C
As of 9:55 AM on Saturday 01 Nov 2014 (Local Time) from EHRD Reporting Station
Clear Clear  
Wind Chill: 59°   Ceiling: Unl
Heat Index: 59°   Visibility: 6mi
Dew Point: 52°   Wind: 9mph
Humidity: 77%   Direction: 190°S
Pressure: 30.03"   Gusts: NA
Location:  52.07°N, 4.36°E
Report Text: EHRD 010855Z AUTO 19008KT 160V220 9999 NSC 15/11 Q1017 NOSIG
Loading
Personal Weather Stations






























Interactive Weather Map
Tropical Storm Tracking
New forecast layout! Learn more

10-Day Weather Forecast

Advertisements
Track Severe Weather on mobile